sensor_id;sensor_type;location;lat;lon;timestamp;temperature;humidity
17986;DHT22;9118;48.122;11.546;2022-09-12T00:02:24;12.90;99.90
17986;DHT22;9118;48.122;11.546;2022-09-12T00:04:52;12.80;99.90
17986;DHT22;9118;48.122;11.546;2022-09-12T00:07:20;12.80;99.90
17986;DHT22;9118;48.122;11.546;2022-09-12T00:09:47;12.80;99.90
17986;DHT22;9118;48.122;11.546;2022-09-12T00:12:13;12.80;99.90
17986;DHT22;9118;48.122;11.546;2022-09-12T00:14:41;12.80;99.90
17986;DHT22;9118;48.122;11.546;2022-09-12T00:17:08;12.80;99.90
17986;DHT22;9118;48.122;11.546;2022-09-12T00:19:35;12.80;99.90
17986;DHT22;9118;48.122;11.546;2022-09-12T00:22:04;12.70;99.90
17986;DHT22;9118;48.122;11.546;2022-09-12T00:24:31;12.70;99.90
17986;DHT22;9118;48.122;11.546;2022-09-12T00:26:58;12.70;99.90
17986;DHT22;9118;48.122;11.546;2022-09-12T00:29:25;12.80;99.90
17986;DHT22;9118;48.122;11.546;2022-09-12T00:31:52;12.60;99.90
17986;DHT22;9118;48.122;11.546;2022-09-12T00:34:20;12.60;99.90
17986;DHT22;9118;48.122;11.546;2022-09-12T00:36:47;12.50;99.90
17986;DHT22;9118;48.122;11.546;2022-09-12T00:39:15;12.50;99.90
17986;DHT22;9118;48.122;11.546;2022-09-12T00:41:43;12.50;99.90
17986;DHT22;9118;48.122;11.546;2022-09-12T00:44:43;12.50;99.90
17986;DHT22;9118;48.122;11.546;2022-09-12T00:47:15;12.60;99.90
17986;DHT22;9118;48.122;11.546;2022-09-12T00:49:45;12.50;99.90
17986;DHT22;9118;48.122;11.546;2022-09-12T00:52:15;12.50;99.90
17986;DHT22;9118;48.122;11.546;2022-09-12T00:54:50;12.50;99.90
17986;DHT22;9118;48.122;11.546;2022-09-12T00:57:20;12.50;99.90
17986;DHT22;9118;48.122;11.546;2022-09-12T00:59:50;12.50;99.90
17986;DHT22;9118;48.122;11.546;2022-09-12T01:02:20;12.40;99.90
17986;DHT22;9118;48.122;11.546;2022-09-12T01:04:47;12.40;99.90
17986;DHT22;9118;48.122;11.546;2022-09-12T01:07:14;12.30;99.90
17986;DHT22;9118;48.122;11.546;2022-09-12T01:09:43;12.40;99.90
17986;DHT22;9118;48.122;11.546;2022-09-12T01:12:13;12.40;99.90
17986;DHT22;9118;48.122;11.546;2022-09-12T01:14:40;12.30;99.90
17986;DHT22;9118;48.122;11.546;2022-09-12T01:17:11;12.30;99.90
17986;DHT22;9118;48.122;11.546;2022-09-12T01:20:07;12.30;99.90
17986;DHT22;9118;48.122;11.546;2022-09-12T01:26:02;12.30;99.90
17986;DHT22;9118;48.122;11.546;2022-09-12T01:28:53;12.20;99.90
17986;DHT22;9118;48.122;11.546;2022-09-12T01:31:31;12.20;99.90
17986;DHT22;9118;48.122;11.546;2022-09-12T01:34:10;12.20;99.90
17986;DHT22;9118;48.122;11.546;2022-09-12T01:36:46;12.10;99.90
17986;DHT22;9118;48.122;11.546;2022-09-12T01:39:22;12.10;99.90
17986;DHT22;9118;48.122;11.546;2022-09-12T01:41:53;12.20;99.90
17986;DHT22;9118;48.122;11.546;2022-09-12T01:44:27;12.10;99.90
17986;DHT22;9118;48.122;11.546;2022-09-12T01:47:02;12.10;99.90
17986;DHT22;9118;48.122;11.546;2022-09-12T01:49:36;12.10;99.90
17986;DHT22;9118;48.122;11.546;2022-09-12T01:52:10;12.10;99.90
17986;DHT22;9118;48.122;11.546;2022-09-12T01:54:44;12.10;99.90
17986;DHT22;9118;48.122;11.546;2022-09-12T01:57:16;12.10;99.90
17986;DHT22;9118;48.122;11.546;2022-09-12T01:59:47;12.10;99.90
17986;DHT22;9118;48.122;11.546;2022-09-12T02:02:21;12.10;99.90
17986;DHT22;9118;48.122;11.546;2022-09-12T02:04:50;12.10;99.90
17986;DHT22;9118;48.122;11.546;2022-09-12T02:07:21;12.00;99.90
17986;DHT22;9118;48.122;11.546;2022-09-12T02:09:54;12.10;99.90
17986;DHT22;9118;48.122;11.546;2022-09-12T02:12:25;12.10;99.90
17986;DHT22;9118;48.122;11.546;2022-09-12T02:14:58;12.00;99.90
17986;DHT22;9118;48.122;11.546;2022-09-12T02:17:29;12.00;99.90
17986;DHT22;9118;48.122;11.546;2022-09-12T02:20:02;12.00;99.90
17986;DHT22;9118;48.122;11.546;2022-09-12T02:22:30;12.00;99.90
17986;DHT22;9118;48.122;11.546;2022-09-12T02:25:00;12.00;99.90
17986;DHT22;9118;48.122;11.546;2022-09-12T02:27:32;12.00;99.90
17986;DHT22;9118;48.122;11.546;2022-09-12T02:30:02;12.00;99.90
17986;DHT22;9118;48.122;11.546;2022-09-12T02:32:35;11.90;99.90
17986;DHT22;9118;48.122;11.546;2022-09-12T02:35:07;11.90;99.90
17986;DHT22;9118;48.122;11.546;2022-09-12T02:37:46;11.90;99.90
17986;DHT22;9118;48.122;11.546;2022-09-12T02:40:17;11.80;99.90
17986;DHT22;9118;48.122;11.546;2022-09-12T02:42:45;11.80;99.90
17986;DHT22;9118;48.122;11.546;2022-09-12T02:45:12;11.80;99.90
17986;DHT22;9118;48.122;11.546;2022-09-12T02:47:43;11.80;99.90
17986;DHT22;9118;48.122;11.546;2022-09-12T02:50:12;11.80;99.90
17986;DHT22;9118;48.122;11.546;2022-09-12T02:52:40;11.80;99.90
17986;DHT22;9118;48.122;11.546;2022-09-12T02:55:08;11.70;99.90
17986;DHT22;9118;48.122;11.546;2022-09-12T02:57:37;11.80;99.90
17986;DHT22;9118;48.122;11.546;2022-09-12T03:00:05;11.70;99.90
17986;DHT22;9118;48.122;11.546;2022-09-12T03:02:47;11.70;99.90
17986;DHT22;9118;48.122;11.546;2022-09-12T03:05:22;11.60;99.90
17986;DHT22;9118;48.122;11.546;2022-09-12T03:11:13;11.60;99.90
17986;DHT22;9118;48.122;11.546;2022-09-12T03:13:53;11.60;99.90
17986;DHT22;9118;48.122;11.546;2022-09-12T03:16:30;11.60;99.90
17986;DHT22;9118;48.122;11.546;2022-09-12T03:19:06;11.60;99.90
17986;DHT22;9118;48.122;11.546;2022-09-12T03:21:43;11.60;99.90
17986;DHT22;9118;48.122;11.546;2022-09-12T03:24:17;11.50;99.90
17986;DHT22;9118;48.122;11.546;2022-09-12T03:26:48;11.50;99.90
17986;DHT22;9118;48.122;11.546;2022-09-12T03:29:19;11.50;99.90
17986;DHT22;9118;48.122;11.546;2022-09-12T03:31:48;11.50;99.90
17986;DHT22;9118;48.122;11.546;2022-09-12T03:34:18;11.50;99.90
17986;DHT22;9118;48.122;11.546;2022-09-12T03:36:46;11.50;99.90
17986;DHT22;9118;48.122;11.546;2022-09-12T03:39:13;11.50;99.90
17986;DHT22;9118;48.122;11.546;2022-09-12T03:41:40;11.50;99.90
17986;DHT22;9118;48.122;11.546;2022-09-12T03:44:07;11.40;99.90
17986;DHT22;9118;48.122;11.546;2022-09-12T03:46:34;11.40;99.90
17986;DHT22;9118;48.122;11.546;2022-09-12T03:49:02;11.40;99.90
17986;DHT22;9118;48.122;11.546;2022-09-12T03:51:31;11.40;99.90
17986;DHT22;9118;48.122;11.546;2022-09-12T03:53:58;11.50;99.90
17986;DHT22;9118;48.122;11.546;2022-09-12T03:56:25;11.40;99.90
17986;DHT22;9118;48.122;11.546;2022-09-12T03:58:53;11.40;99.90
17986;DHT22;9118;48.122;11.546;2022-09-12T04:01:20;11.40;99.90
17986;DHT22;9118;48.122;11.546;2022-09-12T04:03:50;11.30;99.90
17986;DHT22;9118;48.122;11.546;2022-09-12T04:06:20;11.30;99.90
17986;DHT22;9118;48.122;11.546;2022-09-12T04:08:50;11.30;99.90
17986;DHT22;9118;48.122;11.546;2022-09-12T04:11:19;11.30;99.90
17986;DHT22;9118;48.122;11.546;2022-09-12T04:13:47;11.30;99.90
17986;DHT22;9118;48.122;11.546;2022-09-12T04:16:15;11.30;99.90
17986;DHT22;9118;48.122;11.546;2022-09-12T04:18:42;11.20;99.90
17986;DHT22;9118;48.122;11.546;2022-09-12T04:21:12;11.20;99.90
17986;DHT22;9118;48.122;11.546;2022-09-12T04:23:39;11.30;99.90
17986;DHT22;9118;48.122;11.546;2022-09-12T04:26:08;11.20;99.90
17986;DHT22;9118;48.122;11.546;2022-09-12T04:28:36;11.20;99.90
17986;DHT22;9118;48.122;11.546;2022-09-12T04:31:05;11.20;99.90
17986;DHT22;9118;48.122;11.546;2022-09-12T04:33:33;11.20;99.90
17986;DHT22;9118;48.122;11.546;2022-09-12T04:36:03;11.20;99.90
17986;DHT22;9118;48.122;11.546;2022-09-12T04:38:31;11.20;99.90
17986;DHT22;9118;48.122;11.546;2022-09-12T04:40:58;11.20;99.90
17986;DHT22;9118;48.122;11.546;2022-09-12T04:43:26;11.20;99.90
17986;DHT22;9118;48.122;11.546;2022-09-12T04:45:53;11.20;99.90
17986;DHT22;9118;48.122;11.546;2022-09-12T04:48:21;11.20;99.90
17986;DHT22;9118;48.122;11.546;2022-09-12T04:50:48;11.30;99.90
17986;DHT22;9118;48.122;11.546;2022-09-12T04:53:15;11.00;99.90
17986;DHT22;9118;48.122;11.546;2022-09-12T04:55:43;11.20;99.90
17986;DHT22;9118;48.122;11.546;2022-09-12T04:58:10;11.20;99.90
17986;DHT22;9118;48.122;11.546;2022-09-12T05:00:42;11.20;99.90
17986;DHT22;9118;48.122;11.546;2022-09-12T05:03:09;11.20;99.90
17986;DHT22;9118;48.122;11.546;2022-09-12T05:05:36;11.20;99.90
17986;DHT22;9118;48.122;11.546;2022-09-12T05:08:03;11.20;99.90
17986;DHT22;9118;48.122;11.546;2022-09-12T05:10:30;11.20;99.90
17986;DHT22;9118;48.122;11.546;2022-09-12T05:12:57;11.20;99.90
17986;DHT22;9118;48.122;11.546;2022-09-12T05:15:24;11.20;99.90
17986;DHT22;9118;48.122;11.546;2022-09-12T05:17:52;11.30;99.90
17986;DHT22;9118;48.122;11.546;2022-09-12T05:20:19;11.30;99.90
17986;DHT22;9118;48.122;11.546;2022-09-12T05:22:46;11.30;99.90
17986;DHT22;9118;48.122;11.546;2022-09-12T05:25:14;11.30;99.90
17986;DHT22;9118;48.122;11.546;2022-09-12T05:27:41;11.30;99.90
17986;DHT22;9118;48.122;11.546;2022-09-12T05:30:10;11.30;99.90
17986;DHT22;9118;48.122;11.546;2022-09-12T05:32:37;11.30;99.90
17986;DHT22;9118;48.122;11.546;2022-09-12T05:35:06;11.40;99.90
17986;DHT22;9118;48.122;11.546;2022-09-12T05:37:33;11.40;99.90
17986;DHT22;9118;48.122;11.546;2022-09-12T05:40:01;11.40;99.90
17986;DHT22;9118;48.122;11.546;2022-09-12T05:42:31;11.50;99.90
17986;DHT22;9118;48.122;11.546;2022-09-12T05:44:58;11.50;99.90
17986;DHT22;9118;48.122;11.546;2022-09-12T05:47:25;11.60;99.90
17986;DHT22;9118;48.122;11.546;2022-09-12T05:49:52;11.60;99.90
17986;DHT22;9118;48.122;11.546;2022-09-12T05:52:26;11.60;99.90
17986;DHT22;9118;48.122;11.546;2022-09-12T05:54:54;11.70;99.90
17986;DHT22;9118;48.122;11.546;2022-09-12T05:57:22;11.70;99.90
17986;DHT22;9118;48.122;11.546;2022-09-12T05:59:49;11.70;99.90
17986;DHT22;9118;48.122;11.546;2022-09-12T06:02:17;11.80;99.90
17986;DHT22;9118;48.122;11.546;2022-09-12T06:04:44;11.80;99.90
17986;DHT22;9118;48.122;11.546;2022-09-12T06:07:13;11.90;99.90
17986;DHT22;9118;48.122;11.546;2022-09-12T06:09:41;11.90;99.90
17986;DHT22;9118;48.122;11.546;2022-09-12T06:12:08;12.00;99.90
17986;DHT22;9118;48.122;11.546;2022-09-12T06:14:36;12.00;99.90
17986;DHT22;9118;48.122;11.546;2022-09-12T06:17:03;12.00;99.90
17986;DHT22;9118;48.122;11.546;2022-09-12T06:19:30;12.10;99.90
17986;DHT22;9118;48.122;11.546;2022-09-12T06:21:57;12.10;99.90
17986;DHT22;9118;48.122;11.546;2022-09-12T06:24:24;12.20;99.90
17986;DHT22;9118;48.122;11.546;2022-09-12T06:26:55;12.20;99.90
17986;DHT22;9118;48.122;11.546;2022-09-12T06:29:22;12.30;99.90
17986;DHT22;9118;48.122;11.546;2022-09-12T06:31:50;12.30;99.90
17986;DHT22;9118;48.122;11.546;2022-09-12T06:34:17;12.40;99.90
17986;DHT22;9118;48.122;11.546;2022-09-12T06:36:46;12.40;99.90
17986;DHT22;9118;48.122;11.546;2022-09-12T06:39:15;12.50;99.90
17986;DHT22;9118;48.122;11.546;2022-09-12T06:41:46;12.60;99.90
17986;DHT22;9118;48.122;11.546;2022-09-12T06:44:16;12.60;99.90
17986;DHT22;9118;48.122;11.546;2022-09-12T06:46:44;12.70;99.90
17986;DHT22;9118;48.122;11.546;2022-09-12T06:49:12;12.80;99.90
17986;DHT22;9118;48.122;11.546;2022-09-12T06:51:40;12.80;99.90
17986;DHT22;9118;48.122;11.546;2022-09-12T06:54:08;12.90;99.90
17986;DHT22;9118;48.122;11.546;2022-09-12T06:56:36;13.00;99.90
17986;DHT22;9118;48.122;11.546;2022-09-12T06:59:03;13.00;99.90
17986;DHT22;9118;48.122;11.546;2022-09-12T07:01:32;13.10;99.90
17986;DHT22;9118;48.122;11.546;2022-09-12T07:04:01;13.20;99.90
17986;DHT22;9118;48.122;11.546;2022-09-12T07:06:31;13.20;99.90
17986;DHT22;9118;48.122;11.546;2022-09-12T07:09:02;13.30;99.90
17986;DHT22;9118;48.122;11.546;2022-09-12T07:11:31;13.30;99.90
17986;DHT22;9118;48.122;11.546;2022-09-12T07:14:04;13.40;99.90
17986;DHT22;9118;48.122;11.546;2022-09-12T07:16:33;13.50;99.90
17986;DHT22;9118;48.122;11.546;2022-09-12T07:19:02;13.50;99.90
17986;DHT22;9118;48.122;11.546;2022-09-12T07:21:30;13.60;99.90
17986;DHT22;9118;48.122;11.546;2022-09-12T07:23:57;13.70;99.90
17986;DHT22;9118;48.122;11.546;2022-09-12T07:26:26;13.90;99.90
17986;DHT22;9118;48.122;11.546;2022-09-12T07:28:55;13.90;99.90
17986;DHT22;9118;48.122;11.546;2022-09-12T07:31:25;14.00;99.90
17986;DHT22;9118;48.122;11.546;2022-09-12T07:33:55;14.10;99.90
17986;DHT22;9118;48.122;11.546;2022-09-12T07:36:23;13.90;99.90
17986;DHT22;9118;48.122;11.546;2022-09-12T07:38:56;14.20;99.90
17986;DHT22;9118;48.122;11.546;2022-09-12T07:41:25;14.30;99.90
17986;DHT22;9118;48.122;11.546;2022-09-12T07:43:54;14.40;99.90
17986;DHT22;9118;48.122;11.546;2022-09-12T07:46:22;14.50;99.90
17986;DHT22;9118;48.122;11.546;2022-09-12T07:48:50;14.50;99.90
17986;DHT22;9118;48.122;11.546;2022-09-12T07:51:20;14.60;99.90
17986;DHT22;9118;48.122;11.546;2022-09-12T07:53:48;14.70;99.90
17986;DHT22;9118;48.122;11.546;2022-09-12T07:56:17;14.80;99.90
17986;DHT22;9118;48.122;11.546;2022-09-12T07:58:44;14.90;99.90
17986;DHT22;9118;48.122;11.546;2022-09-12T08:01:13;14.90;99.90
17986;DHT22;9118;48.122;11.546;2022-09-12T08:03:41;15.00;99.90
17986;DHT22;9118;48.122;11.546;2022-09-12T08:06:10;15.10;99.90
17986;DHT22;9118;48.122;11.546;2022-09-12T08:08:41;15.20;99.90
17986;DHT22;9118;48.122;11.546;2022-09-12T08:11:10;15.20;99.90
17986;DHT22;9118;48.122;11.546;2022-09-12T08:13:38;15.20;99.90
17986;DHT22;9118;48.122;11.546;2022-09-12T08:16:08;15.30;99.90
17986;DHT22;9118;48.122;11.546;2022-09-12T08:18:36;15.40;99.90
17986;DHT22;9118;48.122;11.546;2022-09-12T08:21:08;15.40;99.90
17986;DHT22;9118;48.122;11.546;2022-09-12T08:23:36;15.50;99.90
17986;DHT22;9118;48.122;11.546;2022-09-12T08:26:05;15.40;99.90
17986;DHT22;9118;48.122;11.546;2022-09-12T08:28:34;15.70;99.90
17986;DHT22;9118;48.122;11.546;2022-09-12T08:31:02;15.70;99.90
17986;DHT22;9118;48.122;11.546;2022-09-12T08:33:31;15.80;99.90
17986;DHT22;9118;48.122;11.546;2022-09-12T08:36:03;15.90;99.90
17986;DHT22;9118;48.122;11.546;2022-09-12T08:38:31;15.90;99.90
17986;DHT22;9118;48.122;11.546;2022-09-12T08:41:06;16.00;99.90
17986;DHT22;9118;48.122;11.546;2022-09-12T08:43:52;16.10;99.90
17986;DHT22;9118;48.122;11.546;2022-09-12T08:46:30;16.20;99.90
17986;DHT22;9118;48.122;11.546;2022-09-12T08:48:59;16.30;99.90
17986;DHT22;9118;48.122;11.546;2022-09-12T08:51:28;16.30;99.90
17986;DHT22;9118;48.122;11.546;2022-09-12T08:54:01;16.40;99.90
17986;DHT22;9118;48.122;11.546;2022-09-12T08:56:47;16.40;99.90
17986;DHT22;9118;48.122;11.546;2022-09-12T08:59:14;16.50;99.90
17986;DHT22;9118;48.122;11.546;2022-09-12T09:01:43;16.60;99.90
17986;DHT22;9118;48.122;11.546;2022-09-12T09:04:34;16.60;99.90
17986;DHT22;9118;48.122;11.546;2022-09-12T09:07:21;16.70;99.90
17986;DHT22;9118;48.122;11.546;2022-09-12T09:10:12;16.70;99.90
17986;DHT22;9118;48.122;11.546;2022-09-12T09:12:52;16.80;99.90
17986;DHT22;9118;48.122;11.546;2022-09-12T09:15:38;16.80;99.90
17986;DHT22;9118;48.122;11.546;2022-09-12T09:18:11;16.90;99.90
17986;DHT22;9118;48.122;11.546;2022-09-12T09:20:46;17.00;99.90
17986;DHT22;9118;48.122;11.546;2022-09-12T09:23:26;17.00;99.90
17986;DHT22;9118;48.122;11.546;2022-09-12T09:25:59;17.10;99.90
17986;DHT22;9118;48.122;11.546;2022-09-12T09:28:38;17.10;99.90
17986;DHT22;9118;48.122;11.546;2022-09-12T09:31:23;17.20;99.90
17986;DHT22;9118;48.122;11.546;2022-09-12T09:33:52;17.30;99.90
17986;DHT22;9118;48.122;11.546;2022-09-12T09:36:21;17.40;99.90
17986;DHT22;9118;48.122;11.546;2022-09-12T09:38:54;17.40;99.90
17986;DHT22;9118;48.122;11.546;2022-09-12T09:41:44;17.50;99.90
17986;DHT22;9118;48.122;11.546;2022-09-12T09:44:17;17.60;99.90
17986;DHT22;9118;48.122;11.546;2022-09-12T09:46:44;17.60;99.90
17986;DHT22;9118;48.122;11.546;2022-09-12T09:49:15;17.70;99.90
17986;DHT22;9118;48.122;11.546;2022-09-12T09:51:43;17.70;99.90
17986;DHT22;9118;48.122;11.546;2022-09-12T09:54:17;17.70;99.90
17986;DHT22;9118;48.122;11.546;2022-09-12T09:56:47;17.80;99.90
17986;DHT22;9118;48.122;11.546;2022-09-12T09:59:25;17.80;99.90
17986;DHT22;9118;48.122;11.546;2022-09-12T10:01:58;17.90;99.90
17986;DHT22;9118;48.122;11.546;2022-09-12T10:04:41;18.00;99.90
17986;DHT22;9118;48.122;11.546;2022-09-12T10:07:20;18.00;99.90
17986;DHT22;9118;48.122;11.546;2022-09-12T10:10:04;18.10;99.90
17986;DHT22;9118;48.122;11.546;2022-09-12T10:12:33;18.10;99.90
17986;DHT22;9118;48.122;11.546;2022-09-12T10:15:12;18.20;99.90
17986;DHT22;9118;48.122;11.546;2022-09-12T10:17:44;18.20;99.90
17986;DHT22;9118;48.122;11.546;2022-09-12T10:20:30;18.20;99.90
17986;DHT22;9118;48.122;11.546;2022-09-12T10:22:58;18.30;99.90
17986;DHT22;9118;48.122;11.546;2022-09-12T10:25:27;18.40;99.90
17986;DHT22;9118;48.122;11.546;2022-09-12T10:27:57;18.40;99.90
17986;DHT22;9118;48.122;11.546;2022-09-12T10:30:27;18.50;99.90
17986;DHT22;9118;48.122;11.546;2022-09-12T10:33:11;18.50;99.90
17986;DHT22;9118;48.122;11.546;2022-09-12T10:35:46;18.50;99.90
17986;DHT22;9118;48.122;11.546;2022-09-12T10:38:20;18.60;99.90
17986;DHT22;9118;48.122;11.546;2022-09-12T10:40:55;18.60;99.90
17986;DHT22;9118;48.122;11.546;2022-09-12T10:43:28;18.60;99.90
17986;DHT22;9118;48.122;11.546;2022-09-12T10:46:26;18.60;99.90
17986;DHT22;9118;48.122;11.546;2022-09-12T10:52:17;18.70;99.90
17986;DHT22;9118;48.122;11.546;2022-09-12T10:54:50;18.70;99.90
17986;DHT22;9118;48.122;11.546;2022-09-12T11:00:14;18.80;99.90
17986;DHT22;9118;48.122;11.546;2022-09-12T11:02:50;19.30;99.90
17986;DHT22;9118;48.122;11.546;2022-09-12T11:05:51;18.90;99.90
17986;DHT22;9118;48.122;11.546;2022-09-12T11:08:41;18.10;99.90
17986;DHT22;9118;48.122;11.546;2022-09-12T11:11:35;19.10;99.90
17986;DHT22;9118;48.122;11.546;2022-09-12T11:14:20;19.10;99.90
17986;DHT22;9118;48.122;11.546;2022-09-12T11:16:55;19.20;99.90
17986;DHT22;9118;48.122;11.546;2022-09-12T11:19:48;19.20;99.90
17986;DHT22;9118;48.122;11.546;2022-09-12T11:22:35;19.30;99.90
17986;DHT22;9118;48.122;11.546;2022-09-12T11:25:22;19.40;99.90
17986;DHT22;9118;48.122;11.546;2022-09-12T11:28:06;19.40;99.90
17986;DHT22;9118;48.122;11.546;2022-09-12T11:30:45;19.40;99.90
17986;DHT22;9118;48.122;11.546;2022-09-12T11:33:33;19.40;99.90
17986;DHT22;9118;48.122;11.546;2022-09-12T11:36:14;19.40;99.90
17986;DHT22;9118;48.122;11.546;2022-09-12T11:38:50;19.40;99.90
17986;DHT22;9118;48.122;11.546;2022-09-12T11:41:23;19.50;99.90
17986;DHT22;9118;48.122;11.546;2022-09-12T11:43:59;19.50;99.90
17986;DHT22;9118;48.122;11.546;2022-09-12T11:46:35;19.60;99.90
17986;DHT22;9118;48.122;11.546;2022-09-12T11:49:10;19.70;99.90
17986;DHT22;9118;48.122;11.546;2022-09-12T11:51:46;19.80;99.90
17986;DHT22;9118;48.122;11.546;2022-09-12T11:54:25;19.80;99.90
17986;DHT22;9118;48.122;11.546;2022-09-12T11:57:00;19.90;99.90
17986;DHT22;9118;48.122;11.546;2022-09-12T11:59:34;19.90;99.90
17986;DHT22;9118;48.122;11.546;2022-09-12T12:02:03;20.00;99.90
17986;DHT22;9118;48.122;11.546;2022-09-12T12:04:47;20.10;99.90
17986;DHT22;9118;48.122;11.546;2022-09-12T12:07:35;20.10;99.90
17986;DHT22;9118;48.122;11.546;2022-09-12T12:10:07;20.20;99.90
17986;DHT22;9118;48.122;11.546;2022-09-12T12:12:48;20.30;99.90
17986;DHT22;9118;48.122;11.546;2022-09-12T12:15:17;20.00;99.90
17986;DHT22;9118;48.122;11.546;2022-09-12T12:17:58;20.60;99.90
17986;DHT22;9118;48.122;11.546;2022-09-12T12:20:26;20.40;99.90
17986;DHT22;9118;48.122;11.546;2022-09-12T12:22:56;20.40;99.90
17986;DHT22;9118;48.122;11.546;2022-09-12T12:25:25;20.50;99.90
17986;DHT22;9118;48.122;11.546;2022-09-12T12:28:04;20.60;99.90
17986;DHT22;9118;48.122;11.546;2022-09-12T12:31:00;20.70;99.90
17986;DHT22;9118;48.122;11.546;2022-09-12T12:34:02;20.80;99.90
17986;DHT22;9118;48.122;11.546;2022-09-12T12:36:36;20.90;99.90
17986;DHT22;9118;48.122;11.546;2022-09-12T12:43:01;21.10;99.90
17986;DHT22;9118;48.122;11.546;2022-09-12T12:48:47;21.10;99.90
17986;DHT22;9118;48.122;11.546;2022-09-12T12:51:55;21.10;99.90
17986;DHT22;9118;48.122;11.546;2022-09-12T12:54:50;21.20;99.90
17986;DHT22;9118;48.122;11.546;2022-09-12T12:57:26;21.20;99.90
17986;DHT22;9118;48.122;11.546;2022-09-12T12:59:58;21.20;99.90
17986;DHT22;9118;48.122;11.546;2022-09-12T13:02:30;21.30;99.90
17986;DHT22;9118;48.122;11.546;2022-09-12T13:05:00;21.40;99.90
17986;DHT22;9118;48.122;11.546;2022-09-12T13:07:33;21.40;99.90
17986;DHT22;9118;48.122;11.546;2022-09-12T13:10:03;21.50;99.90
17986;DHT22;9118;48.122;11.546;2022-09-12T13:12:33;21.50;99.90
17986;DHT22;9118;48.122;11.546;2022-09-12T13:15:27;21.60;99.90
17986;DHT22;9118;48.122;11.546;2022-09-12T13:17:58;21.70;99.90
17986;DHT22;9118;48.122;11.546;2022-09-12T13:20:30;22.20;99.90
17986;DHT22;9118;48.122;11.546;2022-09-12T13:23:00;21.70;99.90
17986;DHT22;9118;48.122;11.546;2022-09-12T13:25:29;21.60;99.90
17986;DHT22;9118;48.122;11.546;2022-09-12T13:27:58;21.60;99.90
17986;DHT22;9118;48.122;11.546;2022-09-12T13:30:27;21.60;99.90
17986;DHT22;9118;48.122;11.546;2022-09-12T13:33:08;21.60;99.90
17986;DHT22;9118;48.122;11.546;2022-09-12T13:35:45;20.60;99.90
17986;DHT22;9118;48.122;11.546;2022-09-12T13:38:21;21.70;99.90
17986;DHT22;9118;48.122;11.546;2022-09-12T13:41:06;22.10;99.90
17986;DHT22;9118;48.122;11.546;2022-09-12T13:43:41;22.60;99.90
17986;DHT22;9118;48.122;11.546;2022-09-12T13:46:13;21.80;99.90
17986;DHT22;9118;48.122;11.546;2022-09-12T13:48:44;21.80;99.90
17986;DHT22;9118;48.122;11.546;2022-09-12T13:51:22;21.90;99.90
17986;DHT22;9118;48.122;11.546;2022-09-12T13:53:52;21.90;99.90
17986;DHT22;9118;48.122;11.546;2022-09-12T13:56:22;20.20;99.90
17986;DHT22;9118;48.122;11.546;2022-09-12T13:58:55;21.90;99.90
17986;DHT22;9118;48.122;11.546;2022-09-12T14:01:23;21.90;99.90
17986;DHT22;9118;48.122;11.546;2022-09-12T14:03:54;21.90;99.90
17986;DHT22;9118;48.122;11.546;2022-09-12T14:06:43;21.90;99.90
17986;DHT22;9118;48.122;11.546;2022-09-12T14:09:13;21.90;99.90
17986;DHT22;9118;48.122;11.546;2022-09-12T14:11:41;21.90;99.90
17986;DHT22;9118;48.122;11.546;2022-09-12T14:14:18;21.90;99.90
17986;DHT22;9118;48.122;11.546;2022-09-12T14:16:47;21.80;99.90
17986;DHT22;9118;48.122;11.546;2022-09-12T14:19:16;21.90;99.90
17986;DHT22;9118;48.122;11.546;2022-09-12T14:21:45;21.90;99.90
17986;DHT22;9118;48.122;11.546;2022-09-12T14:24:12;22.00;99.90
17986;DHT22;9118;48.122;11.546;2022-09-12T14:26:54;22.10;99.90
17986;DHT22;9118;48.122;11.546;2022-09-12T14:29:40;22.10;99.90
17986;DHT22;9118;48.122;11.546;2022-09-12T14:32:22;22.40;99.90
17986;DHT22;9118;48.122;11.546;2022-09-12T14:38:37;24.90;99.90
17986;DHT22;9118;48.122;11.546;2022-09-12T14:41:23;26.20;99.90
17986;DHT22;9118;48.122;11.546;2022-09-12T14:44:08;27.30;99.90
17986;DHT22;9118;48.122;11.546;2022-09-12T14:46:50;28.30;99.90
17986;DHT22;9118;48.122;11.546;2022-09-12T14:49:33;28.90;99.90
17986;DHT22;9118;48.122;11.546;2022-09-12T14:52:23;29.30;99.90
17986;DHT22;9118;48.122;11.546;2022-09-12T15:04:39;30.20;99.50
17986;DHT22;9118;48.122;11.546;2022-09-12T15:07:14;30.80;98.50
17986;DHT22;9118;48.122;11.546;2022-09-12T15:09:56;31.20;96.80
17986;DHT22;9118;48.122;11.546;2022-09-12T15:12:43;31.60;95.20
17986;DHT22;9118;48.122;11.546;2022-09-12T15:15:24;32.00;94.90
17986;DHT22;9118;48.122;11.546;2022-09-12T15:18:05;33.60;93.50
17986;DHT22;9118;48.122;11.546;2022-09-12T15:21:05;35.10;90.70
17986;DHT22;9118;48.122;11.546;2022-09-12T15:23:41;37.10;81.50
17986;DHT22;9118;48.122;11.546;2022-09-12T15:26:24;37.80;79.20
17986;DHT22;9118;48.122;11.546;2022-09-12T15:29:02;38.10;73.40
17986;DHT22;9118;48.122;11.546;2022-09-12T15:31:30;37.90;73.20
17986;DHT22;9118;48.122;11.546;2022-09-12T15:33:59;37.80;67.90
17986;DHT22;9118;48.122;11.546;2022-09-12T15:36:28;37.90;67.50
17986;DHT22;9118;48.122;11.546;2022-09-12T15:38:56;38.60;65.40
17986;DHT22;9118;48.122;11.546;2022-09-12T15:41:28;38.20;64.50
17986;DHT22;9118;48.122;11.546;2022-09-12T15:43:57;37.20;64.50
17986;DHT22;9118;48.122;11.546;2022-09-12T15:46:27;36.90;65.40
17986;DHT22;9118;48.122;11.546;2022-09-12T15:48:55;38.10;65.00
17986;DHT22;9118;48.122;11.546;2022-09-12T15:51:24;39.20;63.30
17986;DHT22;9118;48.122;11.546;2022-09-12T15:54:04;39.30;62.10
17986;DHT22;9118;48.122;11.546;2022-09-12T15:56:31;39.50;60.00
17986;DHT22;9118;48.122;11.546;2022-09-12T15:59:14;39.30;61.40
17986;DHT22;9118;48.122;11.546;2022-09-12T16:01:41;39.70;58.30
17986;DHT22;9118;48.122;11.546;2022-09-12T16:04:21;39.60;57.10
17986;DHT22;9118;48.122;11.546;2022-09-12T16:06:48;36.00;60.10
17986;DHT22;9118;48.122;11.546;2022-09-12T16:09:37;32.80;66.50
17986;DHT22;9118;48.122;11.546;2022-09-12T16:12:08;30.10;69.40
17986;DHT22;9118;48.122;11.546;2022-09-12T16:14:49;28.20;73.10
17986;DHT22;9118;48.122;11.546;2022-09-12T16:17:27;27.50;76.40
17986;DHT22;9118;48.122;11.546;2022-09-12T16:20:09;26.50;79.60
17986;DHT22;9118;48.122;11.546;2022-09-12T16:22:38;25.70;82.40
17986;DHT22;9118;48.122;11.546;2022-09-12T16:25:10;25.40;85.90
17986;DHT22;9118;48.122;11.546;2022-09-12T16:27:45;23.80;85.70
17986;DHT22;9118;48.122;11.546;2022-09-12T16:30:15;24.40;87.80
17986;DHT22;9118;48.122;11.546;2022-09-12T16:32:42;24.00;91.00
17986;DHT22;9118;48.122;11.546;2022-09-12T16:35:23;24.00;92.10
17986;DHT22;9118;48.122;11.546;2022-09-12T16:37:54;23.20;92.10
17986;DHT22;9118;48.122;11.546;2022-09-12T16:40:39;23.30;92.80